sensor_id;sensor_type;location;lat;lon;timestamp;P1;durP1;ratioP1;P2;durP2;ratioP2
16075;SDS011;8142;48.242;11.644;2023-02-20T00:02:05;6.60;;;1.97;;
16075;SDS011;8142;48.242;11.644;2023-02-20T00:04:31;3.43;;;1.50;;
16075;SDS011;8142;48.242;11.644;2023-02-20T00:06:57;2.80;;;1.60;;
16075;SDS011;8142;48.242;11.644;2023-02-20T00:09:22;4.77;;;2.10;;
16075;SDS011;8142;48.242;11.644;2023-02-20T00:11:48;3.37;;;1.80;;
16075;SDS011;8142;48.242;11.644;2023-02-20T00:14:14;4.33;;;1.97;;
16075;SDS011;8142;48.242;11.644;2023-02-20T00:16:40;4.13;;;1.50;;
16075;SDS011;8142;48.242;11.644;2023-02-20T00:19:06;3.90;;;1.80;;
16075;SDS011;8142;48.242;11.644;2023-02-20T00:21:32;2.47;;;1.60;;
16075;SDS011;8142;48.242;11.644;2023-02-20T00:23:57;4.70;;;1.93;;
16075;SDS011;8142;48.242;11.644;2023-02-20T00:26:23;3.77;;;1.77;;
16075;SDS011;8142;48.242;11.644;2023-02-20T00:28:49;3.43;;;1.60;;
16075;SDS011;8142;48.242;11.644;2023-02-20T00:31:15;3.30;;;1.80;;
16075;SDS011;8142;48.242;11.644;2023-02-20T00:33:43;3.63;;;1.67;;
16075;SDS011;8142;48.242;11.644;2023-02-20T00:36:17;3.17;;;1.73;;
16075;SDS011;8142;48.242;11.644;2023-02-20T00:38:44;1.53;;;1.37;;
16075;SDS011;8142;48.242;11.644;2023-02-20T00:41:11;4.83;;;1.80;;
16075;SDS011;8142;48.242;11.644;2023-02-20T00:43:40;1.70;;;1.60;;
16075;SDS011;8142;48.242;11.644;2023-02-20T00:46:06;3.63;;;1.67;;
16075;SDS011;8142;48.242;11.644;2023-02-20T00:48:35;3.63;;;1.73;;
16075;SDS011;8142;48.242;11.644;2023-02-20T00:51:01;3.07;;;1.90;;
16075;SDS011;8142;48.242;11.644;2023-02-20T00:53:27;3.57;;;1.80;;
16075;SDS011;8142;48.242;11.644;2023-02-20T00:55:53;3.80;;;1.60;;
16075;SDS011;8142;48.242;11.644;2023-02-20T00:58:19;3.97;;;1.80;;
16075;SDS011;8142;48.242;11.644;2023-02-20T01:00:45;2.67;;;1.83;;
16075;SDS011;8142;48.242;11.644;2023-02-20T01:03:11;4.80;;;1.80;;
16075;SDS011;8142;48.242;11.644;2023-02-20T01:05:38;3.87;;;1.70;;
16075;SDS011;8142;48.242;11.644;2023-02-20T01:08:04;2.80;;;1.87;;
16075;SDS011;8142;48.242;11.644;2023-02-20T01:10:30;5.50;;;2.00;;
16075;SDS011;8142;48.242;11.644;2023-02-20T01:12:56;1.87;;;1.50;;
16075;SDS011;8142;48.242;11.644;2023-02-20T01:15:21;4.97;;;1.90;;
16075;SDS011;8142;48.242;11.644;2023-02-20T01:17:47;3.07;;;1.80;;
16075;SDS011;8142;48.242;11.644;2023-02-20T01:20:13;4.23;;;1.80;;
16075;SDS011;8142;48.242;11.644;2023-02-20T01:22:39;5.00;;;1.80;;
16075;SDS011;8142;48.242;11.644;2023-02-20T01:25:05;2.33;;;1.70;;
16075;SDS011;8142;48.242;11.644;2023-02-20T01:27:31;4.63;;;1.90;;
16075;SDS011;8142;48.242;11.644;2023-02-20T01:29:57;2.00;;;1.57;;
16075;SDS011;8142;48.242;11.644;2023-02-20T01:32:23;4.13;;;1.80;;
16075;SDS011;8142;48.242;11.644;2023-02-20T01:34:49;2.87;;;1.70;;
16075;SDS011;8142;48.242;11.644;2023-02-20T01:37:15;3.63;;;1.70;;
16075;SDS011;8142;48.242;11.644;2023-02-20T01:39:42;2.20;;;1.60;;
16075;SDS011;8142;48.242;11.644;2023-02-20T01:42:12;2.67;;;1.83;;
16075;SDS011;8142;48.242;11.644;2023-02-20T01:44:44;3.77;;;1.90;;
16075;SDS011;8142;48.242;11.644;2023-02-20T01:47:17;5.00;;;1.70;;
16075;SDS011;8142;48.242;11.644;2023-02-20T01:49:58;4.40;;;1.83;;
16075;SDS011;8142;48.242;11.644;2023-02-20T01:52:30;3.63;;;1.70;;
16075;SDS011;8142;48.242;11.644;2023-02-20T01:55:01;3.43;;;1.70;;
16075;SDS011;8142;48.242;11.644;2023-02-20T01:57:31;3.60;;;1.70;;
16075;SDS011;8142;48.242;11.644;2023-02-20T02:00:02;2.57;;;1.70;;
16075;SDS011;8142;48.242;11.644;2023-02-20T02:02:36;3.23;;;1.80;;
16075;SDS011;8142;48.242;11.644;2023-02-20T02:05:05;3.93;;;1.87;;
16075;SDS011;8142;48.242;11.644;2023-02-20T02:07:33;4.37;;;1.83;;
16075;SDS011;8142;48.242;11.644;2023-02-20T02:10:04;4.03;;;1.80;;
16075;SDS011;8142;48.242;11.644;2023-02-20T02:12:32;3.60;;;1.70;;
16075;SDS011;8142;48.242;11.644;2023-02-20T02:14:58;4.10;;;1.90;;
16075;SDS011;8142;48.242;11.644;2023-02-20T02:17:47;2.90;;;1.90;;
16075;SDS011;8142;48.242;11.644;2023-02-20T02:26:00;3.47;;;1.80;;
16075;SDS011;8142;48.242;11.644;2023-02-20T02:36:51;4.87;;;2.00;;
16075;SDS011;8142;48.242;11.644;2023-02-20T02:39:27;2.63;;;1.90;;
16075;SDS011;8142;48.242;11.644;2023-02-20T02:45:46;2.47;;;1.90;;
16075;SDS011;8142;48.242;11.644;2023-02-20T02:50:52;2.80;;;1.80;;
16075;SDS011;8142;48.242;11.644;2023-02-20T02:53:23;3.60;;;1.90;;
16075;SDS011;8142;48.242;11.644;2023-02-20T02:55:49;4.07;;;2.00;;
16075;SDS011;8142;48.242;11.644;2023-02-20T02:58:14;2.47;;;2.13;;
16075;SDS011;8142;48.242;11.644;2023-02-20T03:00:52;3.97;;;2.20;;
16075;SDS011;8142;48.242;11.644;2023-02-20T03:08:48;3.87;;;2.27;;
16075;SDS011;8142;48.242;11.644;2023-02-20T03:11:22;2.50;;;2.03;;
16075;SDS011;8142;48.242;11.644;2023-02-20T03:13:52;2.50;;;2.20;;
16075;SDS011;8142;48.242;11.644;2023-02-20T03:16:46;6.27;;;2.40;;
16075;SDS011;8142;48.242;11.644;2023-02-20T03:19:16;4.93;;;2.10;;
16075;SDS011;8142;48.242;11.644;2023-02-20T03:21:48;6.03;;;2.37;;
16075;SDS011;8142;48.242;11.644;2023-02-20T03:24:17;3.23;;;2.00;;
16075;SDS011;8142;48.242;11.644;2023-02-20T03:26:44;3.07;;;2.00;;
16075;SDS011;8142;48.242;11.644;2023-02-20T03:29:13;2.97;;;2.03;;
16075;SDS011;8142;48.242;11.644;2023-02-20T03:31:50;2.63;;;2.10;;
16075;SDS011;8142;48.242;11.644;2023-02-20T03:34:38;3.93;;;2.30;;
16075;SDS011;8142;48.242;11.644;2023-02-20T03:37:25;2.80;;;1.97;;
16075;SDS011;8142;48.242;11.644;2023-02-20T03:40:13;4.07;;;2.27;;
16075;SDS011;8142;48.242;11.644;2023-02-20T03:43:01;4.63;;;2.30;;
16075;SDS011;8142;48.242;11.644;2023-02-20T03:46:11;5.10;;;2.17;;
16075;SDS011;8142;48.242;11.644;2023-02-20T03:51:11;2.93;;;2.37;;
16075;SDS011;8142;48.242;11.644;2023-02-20T03:53:40;2.60;;;2.10;;
16075;SDS011;8142;48.242;11.644;2023-02-20T03:56:12;5.73;;;2.47;;
16075;SDS011;8142;48.242;11.644;2023-02-20T03:58:46;4.80;;;2.30;;
16075;SDS011;8142;48.242;11.644;2023-02-20T04:01:18;5.37;;;2.50;;
16075;SDS011;8142;48.242;11.644;2023-02-20T04:03:47;4.33;;;2.33;;
16075;SDS011;8142;48.242;11.644;2023-02-20T04:06:15;5.40;;;2.40;;
16075;SDS011;8142;48.242;11.644;2023-02-20T04:14:03;4.20;;;2.43;;
16075;SDS011;8142;48.242;11.644;2023-02-20T04:16:34;5.60;;;2.53;;
16075;SDS011;8142;48.242;11.644;2023-02-20T04:19:04;3.80;;;2.50;;
16075;SDS011;8142;48.242;11.644;2023-02-20T04:21:38;3.20;;;2.23;;
16075;SDS011;8142;48.242;11.644;2023-02-20T04:24:05;4.07;;;2.43;;
16075;SDS011;8142;48.242;11.644;2023-02-20T04:26:37;5.77;;;2.60;;
16075;SDS011;8142;48.242;11.644;2023-02-20T04:29:04;4.23;;;2.30;;
16075;SDS011;8142;48.242;11.644;2023-02-20T04:31:30;4.17;;;2.70;;
16075;SDS011;8142;48.242;11.644;2023-02-20T04:33:56;6.30;;;2.67;;
16075;SDS011;8142;48.242;11.644;2023-02-20T04:36:22;3.50;;;2.73;;
16075;SDS011;8142;48.242;11.644;2023-02-20T04:38:49;5.40;;;2.70;;
16075;SDS011;8142;48.242;11.644;2023-02-20T04:41:14;5.80;;;3.10;;
16075;SDS011;8142;48.242;11.644;2023-02-20T04:43:41;4.50;;;2.70;;
16075;SDS011;8142;48.242;11.644;2023-02-20T04:46:06;5.47;;;2.57;;
16075;SDS011;8142;48.242;11.644;2023-02-20T04:48:32;6.47;;;2.60;;
16075;SDS011;8142;48.242;11.644;2023-02-20T04:50:58;7.33;;;2.97;;
16075;SDS011;8142;48.242;11.644;2023-02-20T04:53:24;6.00;;;2.83;;
16075;SDS011;8142;48.242;11.644;2023-02-20T04:55:49;5.77;;;2.80;;
16075;SDS011;8142;48.242;11.644;2023-02-20T04:58:15;5.57;;;2.80;;
16075;SDS011;8142;48.242;11.644;2023-02-20T05:00:41;4.93;;;2.77;;
16075;SDS011;8142;48.242;11.644;2023-02-20T05:03:07;4.87;;;2.80;;
16075;SDS011;8142;48.242;11.644;2023-02-20T05:05:33;4.07;;;2.60;;
16075;SDS011;8142;48.242;11.644;2023-02-20T05:08:02;5.10;;;2.90;;
16075;SDS011;8142;48.242;11.644;2023-02-20T05:10:30;4.13;;;2.50;;
16075;SDS011;8142;48.242;11.644;2023-02-20T05:12:58;4.50;;;2.60;;
16075;SDS011;8142;48.242;11.644;2023-02-20T05:15:25;6.00;;;2.70;;
16075;SDS011;8142;48.242;11.644;2023-02-20T05:17:52;3.00;;;2.40;;
16075;SDS011;8142;48.242;11.644;2023-02-20T05:20:17;5.93;;;2.80;;
16075;SDS011;8142;48.242;11.644;2023-02-20T05:22:44;5.43;;;2.60;;
16075;SDS011;8142;48.242;11.644;2023-02-20T05:25:10;3.83;;;2.40;;
16075;SDS011;8142;48.242;11.644;2023-02-20T05:27:38;6.73;;;2.73;;
16075;SDS011;8142;48.242;11.644;2023-02-20T05:30:05;5.83;;;2.80;;
16075;SDS011;8142;48.242;11.644;2023-02-20T05:32:31;5.43;;;2.70;;
16075;SDS011;8142;48.242;11.644;2023-02-20T05:34:57;4.77;;;2.90;;
16075;SDS011;8142;48.242;11.644;2023-02-20T05:37:23;3.63;;;2.80;;
16075;SDS011;8142;48.242;11.644;2023-02-20T05:39:50;3.93;;;2.87;;
16075;SDS011;8142;48.242;11.644;2023-02-20T05:42:17;5.80;;;2.57;;
16075;SDS011;8142;48.242;11.644;2023-02-20T05:44:43;4.40;;;2.70;;
16075;SDS011;8142;48.242;11.644;2023-02-20T05:47:09;6.47;;;2.67;;
16075;SDS011;8142;48.242;11.644;2023-02-20T05:49:35;4.37;;;2.80;;
16075;SDS011;8142;48.242;11.644;2023-02-20T05:52:02;6.07;;;2.80;;
16075;SDS011;8142;48.242;11.644;2023-02-20T05:54:34;4.87;;;3.20;;
16075;SDS011;8142;48.242;11.644;2023-02-20T05:57:00;5.43;;;2.73;;
16075;SDS011;8142;48.242;11.644;2023-02-20T05:59:26;5.93;;;3.13;;
16075;SDS011;8142;48.242;11.644;2023-02-20T06:01:55;5.93;;;3.17;;
16075;SDS011;8142;48.242;11.644;2023-02-20T06:04:22;5.20;;;2.70;;
16075;SDS011;8142;48.242;11.644;2023-02-20T06:06:48;5.67;;;2.90;;
16075;SDS011;8142;48.242;11.644;2023-02-20T06:09:14;4.00;;;2.70;;
16075;SDS011;8142;48.242;11.644;2023-02-20T06:11:41;5.70;;;3.00;;
16075;SDS011;8142;48.242;11.644;2023-02-20T06:14:14;5.80;;;2.90;;
16075;SDS011;8142;48.242;11.644;2023-02-20T06:16:43;6.60;;;2.93;;
16075;SDS011;8142;48.242;11.644;2023-02-20T06:19:09;4.30;;;2.80;;
16075;SDS011;8142;48.242;11.644;2023-02-20T06:21:35;7.97;;;3.10;;
16075;SDS011;8142;48.242;11.644;2023-02-20T06:24:05;3.77;;;2.83;;
16075;SDS011;8142;48.242;11.644;2023-02-20T06:26:31;5.40;;;2.97;;
16075;SDS011;8142;48.242;11.644;2023-02-20T06:28:57;3.43;;;2.70;;
16075;SDS011;8142;48.242;11.644;2023-02-20T06:31:23;6.73;;;3.07;;
16075;SDS011;8142;48.242;11.644;2023-02-20T06:33:52;5.40;;;3.00;;
16075;SDS011;8142;48.242;11.644;2023-02-20T06:36:29;3.90;;;2.67;;
16075;SDS011;8142;48.242;11.644;2023-02-20T06:38:56;6.13;;;3.00;;
16075;SDS011;8142;48.242;11.644;2023-02-20T06:41:22;6.93;;;3.23;;
16075;SDS011;8142;48.242;11.644;2023-02-20T06:43:48;5.57;;;3.13;;
16075;SDS011;8142;48.242;11.644;2023-02-20T06:46:14;4.97;;;2.80;;
16075;SDS011;8142;48.242;11.644;2023-02-20T06:48:44;7.30;;;3.30;;
16075;SDS011;8142;48.242;11.644;2023-02-20T06:51:17;6.30;;;2.90;;
16075;SDS011;8142;48.242;11.644;2023-02-20T06:53:45;4.20;;;2.80;;
16075;SDS011;8142;48.242;11.644;2023-02-20T06:56:13;5.07;;;2.97;;
16075;SDS011;8142;48.242;11.644;2023-02-20T06:58:44;6.00;;;3.07;;
16075;SDS011;8142;48.242;11.644;2023-02-20T07:01:11;5.87;;;3.10;;
16075;SDS011;8142;48.242;11.644;2023-02-20T07:03:36;7.13;;;3.10;;
16075;SDS011;8142;48.242;11.644;2023-02-20T07:06:02;5.00;;;2.67;;
16075;SDS011;8142;48.242;11.644;2023-02-20T07:08:28;4.40;;;2.80;;
16075;SDS011;8142;48.242;11.644;2023-02-20T07:10:54;4.23;;;2.90;;
16075;SDS011;8142;48.242;11.644;2023-02-20T07:13:21;6.87;;;2.90;;
16075;SDS011;8142;48.242;11.644;2023-02-20T07:15:47;9.63;;;3.00;;
16075;SDS011;8142;48.242;11.644;2023-02-20T07:18:13;4.73;;;2.60;;
16075;SDS011;8142;48.242;11.644;2023-02-20T07:20:41;7.13;;;3.17;;
16075;SDS011;8142;48.242;11.644;2023-02-20T07:23:07;6.80;;;2.67;;
16075;SDS011;8142;48.242;11.644;2023-02-20T07:25:34;4.97;;;2.83;;
16075;SDS011;8142;48.242;11.644;2023-02-20T07:28:00;6.00;;;2.70;;
16075;SDS011;8142;48.242;11.644;2023-02-20T07:30:26;4.57;;;2.80;;
16075;SDS011;8142;48.242;11.644;2023-02-20T07:32:51;8.70;;;2.90;;
16075;SDS011;8142;48.242;11.644;2023-02-20T07:35:17;4.33;;;2.50;;
16075;SDS011;8142;48.242;11.644;2023-02-20T07:37:43;5.43;;;3.00;;
16075;SDS011;8142;48.242;11.644;2023-02-20T07:40:09;7.23;;;2.80;;
16075;SDS011;8142;48.242;11.644;2023-02-20T07:42:36;4.93;;;2.80;;
16075;SDS011;8142;48.242;11.644;2023-02-20T07:45:02;7.53;;;3.17;;
16075;SDS011;8142;48.242;11.644;2023-02-20T07:47:28;4.37;;;2.60;;
16075;SDS011;8142;48.242;11.644;2023-02-20T07:49:53;3.83;;;2.87;;
16075;SDS011;8142;48.242;11.644;2023-02-20T07:52:19;6.90;;;2.83;;
16075;SDS011;8142;48.242;11.644;2023-02-20T07:54:45;6.03;;;3.00;;
16075;SDS011;8142;48.242;11.644;2023-02-20T07:57:11;7.17;;;2.97;;
16075;SDS011;8142;48.242;11.644;2023-02-20T07:59:39;4.10;;;2.80;;
16075;SDS011;8142;48.242;11.644;2023-02-20T08:02:05;5.77;;;2.80;;
16075;SDS011;8142;48.242;11.644;2023-02-20T08:04:31;5.93;;;2.97;;
16075;SDS011;8142;48.242;11.644;2023-02-20T08:06:57;6.00;;;2.90;;
16075;SDS011;8142;48.242;11.644;2023-02-20T08:09:23;5.53;;;2.90;;
16075;SDS011;8142;48.242;11.644;2023-02-20T08:11:49;5.90;;;2.60;;
16075;SDS011;8142;48.242;11.644;2023-02-20T08:14:15;7.40;;;3.00;;
16075;SDS011;8142;48.242;11.644;2023-02-20T08:16:41;8.47;;;3.40;;
16075;SDS011;8142;48.242;11.644;2023-02-20T08:19:07;9.77;;;2.97;;
16075;SDS011;8142;48.242;11.644;2023-02-20T08:21:32;6.20;;;3.07;;
16075;SDS011;8142;48.242;11.644;2023-02-20T08:23:58;6.60;;;2.90;;
16075;SDS011;8142;48.242;11.644;2023-02-20T08:26:24;7.57;;;3.20;;
16075;SDS011;8142;48.242;11.644;2023-02-20T08:28:50;3.57;;;2.80;;
16075;SDS011;8142;48.242;11.644;2023-02-20T08:31:17;4.67;;;3.17;;
16075;SDS011;8142;48.242;11.644;2023-02-20T08:33:43;6.23;;;2.70;;
16075;SDS011;8142;48.242;11.644;2023-02-20T08:36:09;5.33;;;3.00;;
16075;SDS011;8142;48.242;11.644;2023-02-20T08:38:35;7.10;;;2.90;;
16075;SDS011;8142;48.242;11.644;2023-02-20T08:41:07;6.27;;;3.30;;
16075;SDS011;8142;48.242;11.644;2023-02-20T08:43:34;7.73;;;2.90;;
16075;SDS011;8142;48.242;11.644;2023-02-20T08:46:01;6.87;;;2.93;;
16075;SDS011;8142;48.242;11.644;2023-02-20T08:48:29;3.83;;;2.63;;
16075;SDS011;8142;48.242;11.644;2023-02-20T08:50:57;5.27;;;2.90;;
16075;SDS011;8142;48.242;11.644;2023-02-20T08:53:23;5.57;;;2.80;;
16075;SDS011;8142;48.242;11.644;2023-02-20T08:55:49;4.57;;;2.63;;
16075;SDS011;8142;48.242;11.644;2023-02-20T08:58:19;5.63;;;2.60;;
16075;SDS011;8142;48.242;11.644;2023-02-20T09:00:45;6.90;;;2.73;;
16075;SDS011;8142;48.242;11.644;2023-02-20T09:03:11;5.90;;;2.80;;
16075;SDS011;8142;48.242;11.644;2023-02-20T09:05:37;5.63;;;2.80;;
16075;SDS011;8142;48.242;11.644;2023-02-20T09:08:03;9.03;;;3.10;;
16075;SDS011;8142;48.242;11.644;2023-02-20T09:10:29;4.90;;;2.90;;
16075;SDS011;8142;48.242;11.644;2023-02-20T09:12:56;7.33;;;3.07;;
16075;SDS011;8142;48.242;11.644;2023-02-20T09:15:21;6.93;;;2.83;;
16075;SDS011;8142;48.242;11.644;2023-02-20T09:17:48;5.43;;;3.00;;
16075;SDS011;8142;48.242;11.644;2023-02-20T09:20:15;4.27;;;2.87;;
16075;SDS011;8142;48.242;11.644;2023-02-20T09:22:42;4.27;;;3.00;;
16075;SDS011;8142;48.242;11.644;2023-02-20T09:25:09;5.47;;;2.80;;
16075;SDS011;8142;48.242;11.644;2023-02-20T09:27:36;3.90;;;2.70;;
16075;SDS011;8142;48.242;11.644;2023-02-20T09:30:02;3.10;;;2.60;;
16075;SDS011;8142;48.242;11.644;2023-02-20T09:32:28;5.20;;;2.50;;
16075;SDS011;8142;48.242;11.644;2023-02-20T09:34:54;4.90;;;2.83;;
16075;SDS011;8142;48.242;11.644;2023-02-20T09:37:22;5.10;;;2.50;;
16075;SDS011;8142;48.242;11.644;2023-02-20T09:39:48;5.33;;;3.10;;
16075;SDS011;8142;48.242;11.644;2023-02-20T09:44:59;4.73;;;2.70;;
16075;SDS011;8142;48.242;11.644;2023-02-20T09:50:33;3.57;;;2.87;;
16075;SDS011;8142;48.242;11.644;2023-02-20T09:53:17;4.23;;;2.60;;
16075;SDS011;8142;48.242;11.644;2023-02-20T09:56:05;6.23;;;2.50;;
16075;SDS011;8142;48.242;11.644;2023-02-20T09:58:44;4.87;;;2.53;;
16075;SDS011;8142;48.242;11.644;2023-02-20T10:01:45;7.20;;;2.57;;
16075;SDS011;8142;48.242;11.644;2023-02-20T10:04:16;3.87;;;2.47;;
16075;SDS011;8142;48.242;11.644;2023-02-20T10:06:47;3.60;;;2.40;;
16075;SDS011;8142;48.242;11.644;2023-02-20T10:09:17;6.43;;;2.63;;
16075;SDS011;8142;48.242;11.644;2023-02-20T10:14:37;2.57;;;2.20;;
16075;SDS011;8142;48.242;11.644;2023-02-20T10:17:19;4.23;;;2.47;;
16075;SDS011;8142;48.242;11.644;2023-02-20T10:20:02;5.03;;;2.93;;
16075;SDS011;8142;48.242;11.644;2023-02-20T10:22:42;4.00;;;2.70;;
16075;SDS011;8142;48.242;11.644;2023-02-20T10:25:21;3.37;;;2.37;;
16075;SDS011;8142;48.242;11.644;2023-02-20T10:30:36;3.83;;;2.40;;
16075;SDS011;8142;48.242;11.644;2023-02-20T10:36:01;5.17;;;2.50;;
16075;SDS011;8142;48.242;11.644;2023-02-20T10:39:07;4.93;;;2.63;;
16075;SDS011;8142;48.242;11.644;2023-02-20T10:44:39;4.33;;;2.40;;
16075;SDS011;8142;48.242;11.644;2023-02-20T10:47:14;4.97;;;2.60;;
16075;SDS011;8142;48.242;11.644;2023-02-20T10:52:30;4.57;;;2.60;;
16075;SDS011;8142;48.242;11.644;2023-02-20T10:58:18;4.53;;;2.63;;
16075;SDS011;8142;48.242;11.644;2023-02-20T11:00:38;3.03;;;2.50;;
16075;SDS011;8142;48.242;11.644;2023-02-20T11:03:16;4.20;;;2.70;;
16075;SDS011;8142;48.242;11.644;2023-02-20T11:05:50;3.67;;;2.87;;
16075;SDS011;8142;48.242;11.644;2023-02-20T11:08:20;3.50;;;2.50;;
16075;SDS011;8142;48.242;11.644;2023-02-20T11:10:46;4.07;;;2.40;;
16075;SDS011;8142;48.242;11.644;2023-02-20T11:13:14;4.30;;;2.63;;
16075;SDS011;8142;48.242;11.644;2023-02-20T11:15:44;4.60;;;2.40;;
16075;SDS011;8142;48.242;11.644;2023-02-20T11:18:25;3.77;;;2.20;;
16075;SDS011;8142;48.242;11.644;2023-02-20T11:21:00;2.60;;;2.40;;
16075;SDS011;8142;48.242;11.644;2023-02-20T11:23:41;3.13;;;2.23;;
16075;SDS011;8142;48.242;11.644;2023-02-20T11:31:42;4.00;;;2.40;;
16075;SDS011;8142;48.242;11.644;2023-02-20T11:34:23;2.77;;;2.20;;
16075;SDS011;8142;48.242;11.644;2023-02-20T11:36:52;5.63;;;2.60;;
16075;SDS011;8142;48.242;11.644;2023-02-20T11:39:24;3.13;;;2.17;;
16075;SDS011;8142;48.242;11.644;2023-02-20T11:42:37;3.70;;;2.70;;
16075;SDS011;8142;48.242;11.644;2023-02-20T11:44:43;3.17;;;2.40;;
16075;SDS011;8142;48.242;11.644;2023-02-20T11:49:41;3.77;;;2.23;;
16075;SDS011;8142;48.242;11.644;2023-02-20T11:52:17;4.67;;;2.67;;
16075;SDS011;8142;48.242;11.644;2023-02-20T11:54:46;5.53;;;2.77;;
16075;SDS011;8142;48.242;11.644;2023-02-20T11:57:23;6.03;;;3.07;;
16075;SDS011;8142;48.242;11.644;2023-02-20T12:00:07;3.47;;;2.50;;
16075;SDS011;8142;48.242;11.644;2023-02-20T12:02:35;3.00;;;2.30;;
16075;SDS011;8142;48.242;11.644;2023-02-20T12:05:12;3.83;;;2.50;;
16075;SDS011;8142;48.242;11.644;2023-02-20T12:12:53;3.37;;;2.47;;
16075;SDS011;8142;48.242;11.644;2023-02-20T12:15:21;3.73;;;2.60;;
16075;SDS011;8142;48.242;11.644;2023-02-20T12:20:51;3.33;;;2.40;;
16075;SDS011;8142;48.242;11.644;2023-02-20T12:26:30;4.97;;;2.67;;
16075;SDS011;8142;48.242;11.644;2023-02-20T12:46:00;3.33;;;2.30;;
16075;SDS011;8142;48.242;11.644;2023-02-20T12:51:16;2.97;;;2.10;;
16075;SDS011;8142;48.242;11.644;2023-02-20T12:54:22;2.40;;;2.10;;
16075;SDS011;8142;48.242;11.644;2023-02-20T12:57:04;3.83;;;2.20;;
16075;SDS011;8142;48.242;11.644;2023-02-20T12:59:45;3.20;;;2.13;;
16075;SDS011;8142;48.242;11.644;2023-02-20T13:02:31;2.53;;;1.83;;
16075;SDS011;8142;48.242;11.644;2023-02-20T13:05:02;2.47;;;1.80;;
16075;SDS011;8142;48.242;11.644;2023-02-20T13:07:46;4.03;;;2.00;;
16075;SDS011;8142;48.242;11.644;2023-02-20T13:10:32;5.10;;;1.80;;
16075;SDS011;8142;48.242;11.644;2023-02-20T13:13:11;2.90;;;1.80;;
16075;SDS011;8142;48.242;11.644;2023-02-20T13:15:39;2.47;;;1.80;;
16075;SDS011;8142;48.242;11.644;2023-02-20T13:21:12;7.00;;;1.90;;
16075;SDS011;8142;48.242;11.644;2023-02-20T13:23:40;5.57;;;1.90;;
16075;SDS011;8142;48.242;11.644;2023-02-20T13:27:08;1.90;;;1.50;;
16075;SDS011;8142;48.242;11.644;2023-02-20T13:29:12;4.47;;;1.80;;
16075;SDS011;8142;48.242;11.644;2023-02-20T13:31:48;5.67;;;1.93;;
16075;SDS011;8142;48.242;11.644;2023-02-20T13:36:51;3.30;;;1.77;;
16075;SDS011;8142;48.242;11.644;2023-02-20T13:44:31;3.27;;;1.60;;
16075;SDS011;8142;48.242;11.644;2023-02-20T13:47:01;3.63;;;1.70;;
16075;SDS011;8142;48.242;11.644;2023-02-20T13:57:37;1.60;;;1.50;;
16075;SDS011;8142;48.242;11.644;2023-02-20T14:00:59;1.33;;;1.10;;
16075;SDS011;8142;48.242;11.644;2023-02-20T14:03:11;2.17;;;1.20;;
16075;SDS011;8142;48.242;11.644;2023-02-20T14:05:41;3.10;;;1.10;;
16075;SDS011;8142;48.242;11.644;2023-02-20T14:08:15;3.57;;;1.13;;
16075;SDS011;8142;48.242;11.644;2023-02-20T14:10:42;2.70;;;1.17;;
16075;SDS011;8142;48.242;11.644;2023-02-20T14:15:46;2.37;;;1.23;;
16075;SDS011;8142;48.242;11.644;2023-02-20T14:18:16;1.93;;;1.13;;
16075;SDS011;8142;48.242;11.644;2023-02-20T14:20:48;4.23;;;1.20;;
16075;SDS011;8142;48.242;11.644;2023-02-20T14:23:23;2.40;;;1.20;;
16075;SDS011;8142;48.242;11.644;2023-02-20T14:28:23;6.93;;;1.27;;
16075;SDS011;8142;48.242;11.644;2023-02-20T14:31:03;2.97;;;1.17;;
16075;SDS011;8142;48.242;11.644;2023-02-20T14:33:54;3.63;;;1.10;;
16075;SDS011;8142;48.242;11.644;2023-02-20T14:41:53;1.37;;;0.80;;
16075;SDS011;8142;48.242;11.644;2023-02-20T14:44:21;1.07;;;0.80;;
16075;SDS011;8142;48.242;11.644;2023-02-20T14:46:50;3.30;;;1.63;;
16075;SDS011;8142;48.242;11.644;2023-02-20T14:49:45;2.63;;;1.00;;
16075;SDS011;8142;48.242;11.644;2023-02-20T14:52:12;1.10;;;0.80;;
16075;SDS011;8142;48.242;11.644;2023-02-20T14:54:42;1.40;;;0.97;;
16075;SDS011;8142;48.242;11.644;2023-02-20T14:57:12;1.50;;;0.90;;
16075;SDS011;8142;48.242;11.644;2023-02-20T14:59:39;1.80;;;0.90;;
16075;SDS011;8142;48.242;11.644;2023-02-20T15:04:35;4.23;;;1.10;;
16075;SDS011;8142;48.242;11.644;2023-02-20T15:07:02;0.80;;;0.80;;
16075;SDS011;8142;48.242;11.644;2023-02-20T15:09:34;2.07;;;0.80;;
16075;SDS011;8142;48.242;11.644;2023-02-20T15:12:02;1.33;;;1.00;;
16075;SDS011;8142;48.242;11.644;2023-02-20T15:14:31;2.03;;;1.20;;
16075;SDS011;8142;48.242;11.644;2023-02-20T15:17:07;4.97;;;1.10;;
16075;SDS011;8142;48.242;11.644;2023-02-20T15:19:53;2.07;;;1.30;;
16075;SDS011;8142;48.242;11.644;2023-02-20T15:24:46;2.40;;;1.13;;
16075;SDS011;8142;48.242;11.644;2023-02-20T15:27:13;2.03;;;1.03;;
16075;SDS011;8142;48.242;11.644;2023-02-20T15:29:42;2.10;;;1.20;;
16075;SDS011;8142;48.242;11.644;2023-02-20T15:32:20;1.80;;;1.00;;
16075;SDS011;8142;48.242;11.644;2023-02-20T15:34:49;1.33;;;0.93;;
16075;SDS011;8142;48.242;11.644;2023-02-20T15:39:53;1.17;;;1.07;;
16075;SDS011;8142;48.242;11.644;2023-02-20T15:42:21;1.03;;;1.03;;
16075;SDS011;8142;48.242;11.644;2023-02-20T15:44:48;1.00;;;0.90;;
16075;SDS011;8142;48.242;11.644;2023-02-20T15:47:15;5.03;;;1.07;;
16075;SDS011;8142;48.242;11.644;2023-02-20T15:49:41;1.10;;;0.93;;
16075;SDS011;8142;48.242;11.644;2023-02-20T15:52:11;2.00;;;1.00;;
16075;SDS011;8142;48.242;11.644;2023-02-20T15:54:41;1.23;;;1.00;;
16075;SDS011;8142;48.242;11.644;2023-02-20T15:57:14;1.23;;;1.07;;
16075;SDS011;8142;48.242;11.644;2023-02-20T15:59:42;1.63;;;1.00;;
16075;SDS011;8142;48.242;11.644;2023-02-20T16:02:16;1.77;;;1.00;;
16075;SDS011;8142;48.242;11.644;2023-02-20T16:04:45;1.57;;;1.07;;
16075;SDS011;8142;48.242;11.644;2023-02-20T16:07:13;1.13;;;1.03;;
16075;SDS011;8142;48.242;11.644;2023-02-20T16:09:39;2.80;;;1.10;;
16075;SDS011;8142;48.242;11.644;2023-02-20T16:12:05;2.30;;;1.20;;
16075;SDS011;8142;48.242;11.644;2023-02-20T16:14:31;2.77;;;1.10;;
16075;SDS011;8142;48.242;11.644;2023-02-20T16:16:57;1.47;;;1.10;;
16075;SDS011;8142;48.242;11.644;2023-02-20T16:19:23;2.40;;;1.33;;
16075;SDS011;8142;48.242;11.644;2023-02-20T16:21:50;1.77;;;1.03;;
16075;SDS011;8142;48.242;11.644;2023-02-20T16:24:16;2.80;;;1.00;;
16075;SDS011;8142;48.242;11.644;2023-02-20T16:26:42;1.37;;;1.10;;
16075;SDS011;8142;48.242;11.644;2023-02-20T16:29:16;1.87;;;1.10;;
16075;SDS011;8142;48.242;11.644;2023-02-20T16:34:19;1.40;;;1.00;;
16075;SDS011;8142;48.242;11.644;2023-02-20T16:36:49;2.23;;;1.20;;
16075;SDS011;8142;48.242;11.644;2023-02-20T16:39:16;1.93;;;1.10;;
16075;SDS011;8142;48.242;11.644;2023-02-20T16:41:42;1.57;;;1.07;;
16075;SDS011;8142;48.242;11.644;2023-02-20T16:44:20;2.53;;;1.00;;
16075;SDS011;8142;48.242;11.644;2023-02-20T16:46:50;2.33;;;1.40;;
16075;SDS011;8142;48.242;11.644;2023-02-20T16:49:16;3.17;;;1.23;;
16075;SDS011;8142;48.242;11.644;2023-02-20T16:51:42;1.63;;;1.37;;
16075;SDS011;8142;48.242;11.644;2023-02-20T16:54:26;5.00;;;1.30;;
16075;SDS011;8142;48.242;11.644;2023-02-20T16:56:52;1.60;;;1.20;;
16075;SDS011;8142;48.242;11.644;2023-02-20T16:59:18;3.67;;;1.50;;
16075;SDS011;8142;48.242;11.644;2023-02-20T17:01:46;2.37;;;1.40;;
16075;SDS011;8142;48.242;11.644;2023-02-20T17:04:13;2.20;;;1.50;;
16075;SDS011;8142;48.242;11.644;2023-02-20T17:06:40;2.90;;;1.60;;
16075;SDS011;8142;48.242;11.644;2023-02-20T17:09:06;2.73;;;1.50;;
16075;SDS011;8142;48.242;11.644;2023-02-20T17:11:32;2.60;;;1.50;;
16075;SDS011;8142;48.242;11.644;2023-02-20T17:13:57;2.67;;;1.70;;
16075;SDS011;8142;48.242;11.644;2023-02-20T17:16:23;4.10;;;1.60;;
16075;SDS011;8142;48.242;11.644;2023-02-20T17:18:49;4.43;;;1.40;;
16075;SDS011;8142;48.242;11.644;2023-02-20T17:21:15;3.73;;;1.73;;